Time;durP1;ratioP1;P1;durP2;ratioP2;P2;SDS_P1;SDS_P2;PMS_P1;PMS_P2;Temp;Humidity;BMP_temperature;BMP_pressure;BME280_temperature;BME280_humidity;BME280_pressure;Samples;Min_cycle;Max_cycle;Signal;HPM_P1;HPM_P2
2022/01/07 00:01:42;;;;;;;8.38;3.05;;;5.90;52.00;;;;;;5060863;28;20070;-89
2022/01/07 00:04:08;;;;;;;9.07;2.83;;;6.00;51.40;;;;;;5062464;28;20360;-81
2022/01/07 00:06:34;;;;;;;9.30;2.80;;;6.30;51.20;;;;;;5061216;28;20021;-86
2022/01/07 00:08:59;;;;;;;8.65;3.40;;;6.30;51.10;;;;;;5061080;28;20025;-81
2022/01/07 00:11:25;;;;;;;6.25;2.97;;;6.20;50.80;;;;;;5060835;28;20028;-87
2022/01/07 00:13:51;;;;;;;6.60;2.83;;;5.80;51.00;;;;;;5079559;28;20054;-94
2022/01/07 00:16:16;;;;;;;9.70;3.70;;;6.10;51.70;;;;;;5080730;28;20024;-81
2022/01/07 00:18:44;;;;;;;6.18;3.10;;;5.80;51.50;;;;;;5076949;28;20367;-96
2022/01/07 00:21:10;;;;;;;7.25;3.42;;;5.80;52.20;;;;;;5057811;28;20019;-80
2022/01/07 00:23:38;;;;;;;5.72;3.00;;;6.40;50.80;;;;;;5055816;28;20045;-95
2022/01/07 00:26:04;;;;;;;6.68;2.85;;;6.60;50.60;;;;;;5054422;28;20020;-85
2022/01/07 00:28:30;;;;;;;8.20;2.92;;;6.60;50.30;;;;;;5055679;28;20376;-85
2022/01/07 00:30:56;;;;;;;9.32;3.20;;;6.30;50.30;;;;;;5056511;28;20024;-80
2022/01/07 00:33:21;;;;;;;7.45;3.05;;;6.30;51.30;;;;;;5038638;28;20087;-90
2022/01/07 00:35:48;;;;;;;6.57;2.97;;;6.10;51.00;;;;;;5054533;28;20025;-94
2022/01/07 00:38:14;;;;;;;9.13;3.40;;;6.10;51.50;;;;;;5053705;28;20029;-80
2022/01/07 00:40:40;;;;;;;5.85;3.00;;;5.90;51.80;;;;;;5053229;28;20028;-82
2022/01/07 00:43:05;;;;;;;9.50;3.00;;;5.30;51.90;;;;;;5052320;28;20124;-81
2022/01/07 00:45:32;;;;;;;5.22;2.63;;;5.20;53.10;;;;;;5054231;28;20028;-91
2022/01/07 00:47:58;;;;;;;6.28;3.20;;;5.50;53.00;;;;;;5054198;28;20025;-92
2022/01/07 00:50:26;;;;;;;12.00;3.78;;;6.00;51.70;;;;;;5069941;28;20028;-82
2022/01/07 00:52:52;;;;;;;5.80;3.03;;;6.10;51.50;;;;;;5053060;28;20028;-88
2022/01/07 00:55:19;;;;;;;7.05;3.30;;;6.00;51.70;;;;;;5054000;28;20356;-92
2022/01/07 00:57:45;;;;;;;6.85;3.17;;;6.20;51.40;;;;;;5045699;28;20469;-81
2022/01/07 01:00:14;;;;;;;8.10;3.53;;;6.20;51.30;;;;;;5034042;28;20028;-84
2022/01/07 01:02:40;;;;;;;9.38;3.38;;;5.90;52.30;;;;;;5033799;28;20028;-80
2022/01/07 01:05:08;;;;;;;6.85;3.13;;;5.90;52.20;;;;;;5032648;28;20051;-90
2022/01/07 01:07:34;;;;;;;9.63;3.13;;;5.60;52.40;;;;;;5034057;28;20021;-92
2022/01/07 01:10:01;;;;;;;7.57;3.33;;;5.60;53.70;;;;;;5032563;28;20020;-90
2022/01/07 01:12:27;;;;;;;9.77;3.35;;;5.90;52.50;;;;;;5033002;28;20025;-92
2022/01/07 01:14:53;;;;;;;6.93;3.75;;;6.10;52.20;;;;;;5033694;28;20029;-92
2022/01/07 01:17:19;;;;;;;6.85;3.10;;;6.50;51.70;;;;;;5032890;28;20026;-91
2022/01/07 01:19:47;;;;;;;6.13;3.10;;;6.70;51.00;;;;;;5032662;28;20033;-86
2022/01/07 01:22:12;;;;;;;9.43;3.28;;;6.60;51.00;;;;;;5032666;28;20112;-88
2022/01/07 01:24:38;;;;;;;10.07;3.67;;;6.70;50.70;;;;;;5049137;28;20125;-92
2022/01/07 01:27:04;;;;;;;7.07;3.30;;;6.70;50.50;;;;;;5053887;28;20025;-82
2022/01/07 01:29:31;;;;;;;9.15;3.70;;;6.80;51.00;;;;;;5052744;28;20478;-90
2022/01/07 01:31:57;;;;;;;9.10;3.47;;;6.90;50.40;;;;;;5052566;28;20023;-91
2022/01/07 01:34:27;;;;;;;14.05;3.60;;;7.00;50.00;;;;;;5054427;28;20033;-81
2022/01/07 01:36:53;;;;;;;9.23;3.08;;;6.10;50.10;;;;;;5054042;28;20020;-81
2022/01/07 01:39:18;;;;;;;8.88;3.90;;;5.80;51.50;;;;;;5052493;28;20025;-92
2022/01/07 01:41:45;;;;;;;6.97;3.30;;;6.00;51.00;;;;;;5053502;28;20024;-90
2022/01/07 01:44:10;;;;;;;7.93;3.20;;;6.30;51.40;;;;;;5052311;28;20029;-83
2022/01/07 01:46:39;;;;;;;9.13;3.45;;;6.60;50.20;;;;;;5052248;28;20043;-83
2022/01/07 01:49:06;;;;;;;9.43;3.47;;;6.90;49.80;;;;;;5054020;28;20359;-92
2022/01/07 01:51:33;;;;;;;7.28;3.60;;;6.80;49.50;;;;;;5053357;28;20051;-82
2022/01/07 01:53:59;;;;;;;7.70;3.50;;;7.00;49.60;;;;;;5055696;28;20035;-90
2022/01/07 01:56:25;;;;;;;5.45;3.20;;;6.60;49.40;;;;;;5055837;28;20017;-83
2022/01/07 01:58:51;;;;;;;9.05;4.20;;;6.10;51.10;;;;;;5072912;28;20029;-91
2022/01/07 02:01:16;;;;;;;9.80;3.70;;;5.80;51.90;;;;;;5073295;28;20027;-82
2022/01/07 02:03:42;;;;;;;8.68;3.72;;;6.20;52.00;;;;;;5055116;28;20032;-90
2022/01/07 02:06:09;;;;;;;6.75;3.58;;;6.40;51.30;;;;;;5055238;28;20375;-84
2022/01/07 02:08:36;;;;;;;7.97;3.67;;;6.30;51.40;;;;;;5073334;28;20367;-85
2022/01/07 02:11:02;;;;;;;7.90;4.20;;;6.30;51.50;;;;;;5055335;28;20060;-87
2022/01/07 02:13:28;;;;;;;10.02;3.90;;;6.30;51.30;;;;;;5055386;28;20032;-91
2022/01/07 02:15:54;;;;;;;7.05;3.95;;;6.30;51.30;;;;;;5055405;28;20025;-83
2022/01/07 02:18:20;;;;;;;7.13;3.67;;;6.50;51.40;;;;;;5055178;28;20023;-83
2022/01/07 02:20:47;;;;;;;6.45;3.80;;;6.60;51.50;;;;;;5055665;28;20542;-84
2022/01/07 02:23:13;;;;;;;10.43;3.97;;;6.80;50.70;;;;;;5055087;28;20044;-89
2022/01/07 02:25:39;;;;;;;8.20;3.58;;;6.90;50.30;;;;;;5055306;28;20063;-88
2022/01/07 02:28:05;;;;;;;6.65;3.05;;;6.40;50.90;;;;;;5073671;28;20060;-84
2022/01/07 02:30:31;;;;;;;6.10;3.42;;;6.10;50.10;;;;;;5074722;28;20013;-89
2022/01/07 02:32:57;;;;;;;10.68;3.85;;;5.80;51.30;;;;;;5058624;28;20066;-82
2022/01/07 02:35:33;;;;;;;7.40;3.30;;;5.70;51.00;;;;;;5058867;28;20031;-84
2022/01/07 02:38:02;;;;;;;8.20;3.60;;;5.50;51.60;;;;;;5076327;28;20372;-90
2022/01/07 02:40:28;;;;;;;8.07;3.80;;;5.60;51.80;;;;;;5059114;28;20336;-82
2022/01/07 02:42:56;;;;;;;6.95;3.40;;;5.90;51.40;;;;;;5058741;28;20502;-87
2022/01/07 02:45:24;;;;;;;8.48;3.63;;;6.10;51.00;;;;;;5058767;28;20017;-83
2022/01/07 02:47:53;;;;;;;7.70;4.07;;;5.90;51.80;;;;;;5075986;28;20017;-90
2022/01/07 02:50:33;;;;;;;8.80;4.43;;;5.90;52.10;;;;;;5058522;28;20418;-88
2022/01/07 02:52:59;;;;;;;8.30;4.05;;;6.30;51.70;;;;;;5058437;28;20048;-88
2022/01/07 02:55:26;;;;;;;6.93;3.58;;;6.20;50.90;;;;;;5076441;28;20058;-82
2022/01/07 02:57:52;;;;;;;7.07;3.97;;;6.20;51.40;;;;;;5058587;28;20023;-89
2022/01/07 03:00:20;;;;;;;10.50;4.45;;;6.40;51.10;;;;;;5076360;28;20021;-88
2022/01/07 03:02:48;;;;;;;9.35;3.92;;;6.30;51.50;;;;;;5058486;28;20025;-83
2022/01/07 03:05:15;;;;;;;10.05;4.15;;;6.10;51.20;;;;;;5058475;28;20025;-93
2022/01/07 03:07:41;;;;;;;7.78;3.50;;;5.80;52.00;;;;;;5076259;28;20020;-83
2022/01/07 03:10:08;;;;;;;8.85;4.00;;;5.80;52.00;;;;;;5058157;28;20023;-88
2022/01/07 03:12:36;;;;;;;13.77;4.40;;;5.70;52.60;;;;;;5057799;28;20020;-86
2022/01/07 03:15:05;;;;;;;6.78;3.80;;;5.90;52.40;;;;;;5076005;28;20020;-89
2022/01/07 03:17:30;;;;;;;9.77;4.22;;;6.10;51.80;;;;;;5057985;28;20367;-90
2022/01/07 03:19:59;;;;;;;8.80;3.78;;;6.20;52.20;;;;;;5058182;28;20021;-83
2022/01/07 03:22:25;;;;;;;9.48;3.97;;;6.40;51.50;;;;;;5058320;28;20029;-83
2022/01/07 03:24:51;;;;;;;8.35;4.07;;;6.50;51.40;;;;;;5075571;28;20048;-83
2022/01/07 03:27:16;;;;;;;9.13;4.03;;;6.30;51.70;;;;;;5058435;28;20012;-86
2022/01/07 03:29:42;;;;;;;7.72;4.10;;;6.40;51.30;;;;;;5057749;28;20025;-85
2022/01/07 03:32:08;;;;;;;8.20;4.22;;;6.20;51.10;;;;;;5057347;28;20378;-85
2022/01/07 03:34:34;;;;;;;10.35;4.20;;;5.90;52.50;;;;;;5058011;28;20543;-88
2022/01/07 03:36:59;;;;;;;8.63;3.67;;;6.10;51.70;;;;;;5075332;28;20359;-83
2022/01/07 03:39:25;;;;;;;8.63;3.67;;;6.40;51.30;;;;;;5057621;28;20031;-87
2022/01/07 03:41:56;;;;;;;7.57;3.85;;;6.70;50.90;;;;;;5075339;28;20032;-84
2022/01/07 03:44:21;;;;;;;8.80;3.72;;;7.00;49.80;;;;;;5057616;28;20029;-84
2022/01/07 03:46:49;;;;;;;9.00;4.05;;;6.80;50.10;;;;;;5057333;28;20070;-89
2022/01/07 03:49:15;;;;;;;8.30;3.20;;;6.90;49.40;;;;;;5057510;28;20479;-89
2022/01/07 03:51:43;;;;;;;8.07;3.67;;;6.80;49.40;;;;;;5075035;28;20056;-90
2022/01/07 03:54:09;;;;;;;6.35;3.80;;;6.90;49.40;;;;;;5057253;28;20517;-80
2022/01/07 03:56:35;;;;;;;7.45;3.50;;;6.80;49.90;;;;;;5057114;28;20033;-85
2022/01/07 03:59:03;;;;;;;10.10;3.63;;;6.60;49.80;;;;;;5057199;28;20111;-84
2022/01/07 04:01:29;;;;;;;8.07;3.90;;;6.30;50.50;;;;;;5057567;28;20023;-84
2022/01/07 04:03:55;;;;;;;9.15;4.18;;;6.20;51.20;;;;;;5056943;28;20036;-85
2022/01/07 04:06:20;;;;;;;7.72;3.97;;;6.10;52.50;;;;;;5074724;28;20020;-87
2022/01/07 04:08:48;;;;;;;8.40;4.68;;;6.30;52.00;;;;;;5074395;28;20051;-86
2022/01/07 04:11:14;;;;;;;8.52;4.28;;;6.30;51.80;;;;;;5057167;28;20031;-80
2022/01/07 04:13:40;;;;;;;11.40;4.85;;;5.90;52.10;;;;;;5057008;28;20464;-81
2022/01/07 04:16:06;;;;;;;14.13;5.00;;;5.40;53.20;;;;;;5074227;28;20020;-89
2022/01/07 04:18:32;;;;;;;11.10;4.93;;;5.20;54.50;;;;;;5074524;28;20023;-80
2022/01/07 04:20:57;;;;;;;15.88;6.90;;;5.40;54.20;;;;;;5056647;28;20024;-80
2022/01/07 04:23:23;;;;;;;13.38;6.07;;;5.50;54.40;;;;;;5056208;28;20468;-88
2022/01/07 04:25:49;;;;;;;11.77;4.82;;;5.60;53.80;;;;;;5056411;28;20013;-85
2022/01/07 04:28:14;;;;;;;10.05;4.50;;;5.40;53.80;;;;;;5056407;28;20024;-90
2022/01/07 04:30:43;;;;;;;15.60;6.88;;;5.20;54.20;;;;;;5074227;28;20083;-92
2022/01/07 04:33:12;;;;;;;11.05;5.93;;;5.30;54.30;;;;;;5056222;28;20040;-90
2022/01/07 04:35:38;;;;;;;10.57;4.25;;;5.40;53.50;;;;;;5056278;28;20025;-89
2022/01/07 04:38:05;;;;;;;9.77;4.22;;;5.10;53.80;;;;;;5056158;28;20127;-80
2022/01/07 04:40:32;;;;;;;10.07;4.97;;;4.80;54.50;;;;;;5056032;28;20020;-80
2022/01/07 04:42:59;;;;;;;12.00;5.45;;;4.70;55.30;;;;;;5056922;28;20473;-82
2022/01/07 04:45:25;;;;;;;10.65;4.60;;;4.90;55.20;;;;;;5073492;28;20025;-88
2022/01/07 04:47:53;;;;;;;14.52;6.60;;;5.10;54.70;;;;;;5056151;28;20024;-84
2022/01/07 04:50:25;;;;;;;11.60;4.70;;;5.60;53.90;;;;;;5074002;28;20096;-83
2022/01/07 04:52:51;;;;;;;14.02;8.35;;;5.80;52.80;;;;;;5055681;28;20074;-88
2022/01/07 04:55:21;;;;;;;11.27;5.65;;;5.90;52.40;;;;;;5055151;28;20024;-80
2022/01/07 04:57:47;;;;;;;12.63;5.15;;;5.70;52.50;;;;;;5071367;28;20013;-83
2022/01/07 05:00:14;;;;;;;15.55;8.38;;;6.10;51.90;;;;;;5054690;28;20017;-87
2022/01/07 05:02:41;;;;;;;27.05;12.25;;;5.90;52.00;;;;;;5051865;28;20024;-88
2022/01/07 05:05:08;;;;;;;11.02;4.88;;;6.00;52.10;;;;;;5054580;28;20432;-84
2022/01/07 05:07:36;;;;;;;8.85;4.38;;;5.70;52.10;;;;;;5072402;28;20070;-86
2022/01/07 05:10:06;;;;;;;14.43;4.85;;;5.30;52.80;;;;;;5054488;28;20020;-79
2022/01/07 05:12:32;;;;;;;17.55;7.70;;;5.40;53.00;;;;;;5054505;28;20108;-88
2022/01/07 05:14:58;;;;;;;19.85;7.93;;;5.30;52.80;;;;;;5072965;28;20128;-88
2022/01/07 05:17:24;;;;;;;15.15;6.55;;;4.80;53.50;;;;;;5072311;28;20016;-89
2022/01/07 05:19:50;;;;;;;9.90;4.60;;;4.30;54.90;;;;;;5054316;28;20017;-87
2022/01/07 05:22:15;;;;;;;14.90;5.25;;;4.20;56.00;;;;;;5075357;28;20074;-79
2022/01/07 05:24:41;;;;;;;11.95;5.20;;;4.30;56.10;;;;;;5054356;28;20098;-80
2022/01/07 05:27:07;;;;;;;10.13;4.85;;;4.80;55.20;;;;;;5054832;28;20017;-82
2022/01/07 05:29:35;;;;;;;9.88;4.43;;;5.10;53.90;;;;;;5072195;28;20459;-83
2022/01/07 05:32:07;;;;;;;10.15;4.85;;;4.80;54.00;;;;;;5077226;28;20459;-87
2022/01/07 05:34:33;;;;;;;12.82;5.22;;;4.60;54.80;;;;;;5054826;28;20028;-80
2022/01/07 05:36:59;;;;;;;11.38;5.10;;;4.70;54.40;;;;;;5055360;28;20017;-87
2022/01/07 05:39:25;;;;;;;11.25;5.20;;;4.90;54.20;;;;;;5054961;28;20089;-80
2022/01/07 05:41:51;;;;;;;8.23;4.68;;;4.80;54.40;;;;;;5073092;28;20029;-87
2022/01/07 05:44:17;;;;;;;10.18;4.72;;;4.50;54.70;;;;;;5055423;28;20068;-88
2022/01/07 05:46:43;;;;;;;9.90;4.97;;;4.50;54.90;;;;;;5055290;28;20107;-88
2022/01/07 05:49:09;;;;;;;10.77;4.85;;;4.20;55.60;;;;;;5055270;28;20119;-88
2022/01/07 05:51:35;;;;;;;13.52;5.32;;;4.20;56.10;;;;;;5055277;28;20517;-79
2022/01/07 05:54:00;;;;;;;10.43;4.80;;;4.20;55.90;;;;;;5054709;28;20016;-86
2022/01/07 05:56:26;;;;;;;10.65;5.50;;;4.30;55.80;;;;;;5073284;28;20400;-80
2022/01/07 05:58:52;;;;;;;10.60;4.82;;;4.20;56.00;;;;;;5054827;28;20020;-86
2022/01/07 06:01:18;;;;;;;10.80;4.78;;;4.30;55.60;;;;;;5072846;28;20078;-85
2022/01/07 06:03:44;;;;;;;9.63;4.65;;;4.10;55.70;;;;;;5072834;28;20036;-87
2022/01/07 06:06:10;;;;;;;9.07;4.90;;;3.90;56.20;;;;;;5058271;28;20091;-88
2022/01/07 06:08:36;;;;;;;11.20;5.18;;;3.80;56.50;;;;;;5059166;28;20035;-88
2022/01/07 06:11:02;;;;;;;13.45;5.18;;;4.00;56.40;;;;;;5058707;28;20025;-87
2022/01/07 06:13:27;;;;;;;9.52;5.10;;;4.00;56.30;;;;;;5058967;28;20082;-87
2022/01/07 06:15:53;;;;;;;9.75;5.15;;;3.90;56.10;;;;;;5058308;28;20056;-82
2022/01/07 06:18:19;;;;;;;9.68;4.63;;;3.80;56.20;;;;;;5058311;28;20115;-79
2022/01/07 06:20:44;;;;;;;12.88;5.28;;;3.80;56.40;;;;;;5058606;28;20028;-82
2022/01/07 06:23:10;;;;;;;9.68;4.97;;;3.70;56.70;;;;;;5058277;28;20422;-87
2022/01/07 06:25:36;;;;;;;8.48;4.80;;;3.70;56.50;;;;;;5076077;28;20017;-88
2022/01/07 06:28:04;;;;;;;9.93;5.25;;;3.50;56.20;;;;;;5076144;28;20027;-81
2022/01/07 06:30:30;;;;;;;8.40;4.95;;;3.40;56.70;;;;;;5076574;28;20091;-81
2022/01/07 06:32:56;;;;;;;11.88;4.95;;;3.50;56.90;;;;;;5076670;28;20097;-84
2022/01/07 06:35:21;;;;;;;18.13;10.48;;;3.50;56.70;;;;;;5058685;28;20035;-89
2022/01/07 06:37:47;;;;;;;12.85;6.97;;;3.40;56.50;;;;;;5059003;28;20017;-86
2022/01/07 06:40:13;;;;;;;15.35;6.38;;;3.70;56.10;;;;;;5059067;28;20123;-81
2022/01/07 06:42:39;;;;;;;11.23;5.32;;;3.90;55.60;;;;;;5058968;28;20039;-88
2022/01/07 06:45:06;;;;;;;11.30;5.18;;;3.80;55.60;;;;;;5059141;28;20158;-80
2022/01/07 06:47:32;;;;;;;12.55;5.68;;;3.80;56.20;;;;;;5075938;28;20024;-80
2022/01/07 06:49:58;;;;;;;10.10;5.43;;;3.90;56.40;;;;;;5059334;28;20046;-93
2022/01/07 06:52:24;;;;;;;14.15;5.38;;;4.30;55.80;;;;;;5059696;28;20113;-90
2022/01/07 06:54:50;;;;;;;11.20;5.30;;;4.30;55.70;;;;;;5057872;28;20402;-82
2022/01/07 06:57:16;;;;;;;11.65;5.82;;;4.20;55.60;;;;;;5056927;28;20079;-83
2022/01/07 06:59:42;;;;;;;11.07;5.70;;;4.10;55.90;;;;;;4341383;28;10000745;-91
2022/01/07 07:02:07;;;;;;;13.70;5.60;;;3.70;56.60;;;;;;5034657;28;20107;-92
2022/01/07 07:04:33;;;;;;;19.98;6.47;;;3.50;57.70;;;;;;5034582;28;20036;-81
2022/01/07 07:06:59;;;;;;;13.75;6.68;;;3.70;57.50;;;;;;5034677;28;20021;-81
2022/01/07 07:09:25;;;;;;;16.25;8.13;;;4.10;57.00;;;;;;5034737;28;20427;-82
2022/01/07 07:11:51;;;;;;;12.80;6.30;;;4.40;56.10;;;;;;5051932;28;20029;-93
2022/01/07 07:14:17;;;;;;;12.82;5.97;;;4.20;56.40;;;;;;5052259;28;20074;-82
2022/01/07 07:16:43;;;;;;;13.90;7.00;;;4.10;56.50;;;;;;5034512;28;20028;-86
2022/01/07 07:19:11;;;;;;;43.88;19.20;;;4.20;56.70;;;;;;5033916;28;20036;-83
2022/01/07 07:21:37;;;;;;;65.65;26.02;;;4.10;56.60;;;;;;5033966;28;20017;-82
2022/01/07 07:24:03;;;;;;;32.97;13.93;;;4.00;57.00;;;;;;5031325;28;20057;-82
2022/01/07 07:26:29;;;;;;;43.25;22.38;;;3.90;57.30;;;;;;5030914;28;20017;-82
2022/01/07 07:28:55;;;;;;;23.08;12.05;;;4.00;57.80;;;;;;5031114;28;20040;-87
2022/01/07 07:31:21;;;;;;;27.65;13.45;;;4.10;57.90;;;;;;5030894;28;20083;-93
2022/01/07 07:36:31;;;;;;;21.63;10.63;;;4.70;56.40;;;;;;5032954;28;20668;-84
2022/01/07 07:39:01;;;;;;;21.23;11.10;;;4.90;55.90;;;;;;5031123;28;20578;-92
2022/01/07 07:41:28;;;;;;;25.17;14.40;;;5.20;55.00;;;;;;5030834;28;20021;-83
2022/01/07 07:43:56;;;;;;;16.23;8.90;;;5.50;54.70;;;;;;5032051;28;20037;-82
2022/01/07 07:46:23;;;;;;;18.58;9.52;;;5.40;54.20;;;;;;5030161;28;20043;-84
2022/01/07 07:48:49;;;;;;;20.38;10.43;;;5.50;55.00;;;;;;5032243;28;20032;-86
2022/01/07 07:51:15;;;;;;;17.35;9.60;;;5.90;53.70;;;;;;5031352;28;20369;-83
2022/01/07 07:53:41;;;;;;;18.05;9.15;;;5.90;53.60;;;;;;5031942;28;20021;-83
2022/01/07 07:56:09;;;;;;;18.15;9.30;;;5.90;53.40;;;;;;5032016;28;20022;-84
2022/01/07 07:58:36;;;;;;;22.15;10.07;;;6.10;52.70;;;;;;5037590;28;20467;-89
2022/01/07 08:01:02;;;;;;;24.45;12.45;;;6.10;53.10;;;;;;5050801;28;20028;-84
2022/01/07 08:03:27;;;;;;;38.38;17.67;;;6.50;52.70;;;;;;5050109;28;20040;-83
2022/01/07 08:05:53;;;;;;;22.10;10.43;;;6.60;51.70;;;;;;5050487;28;20025;-89
2022/01/07 08:08:19;;;;;;;12.02;5.78;;;6.60;51.40;;;;;;5050911;28;20021;-84
2022/01/07 08:10:48;;;;;;;14.63;6.93;;;6.30;51.70;;;;;;5049786;28;20483;-84
2022/01/07 08:15:58;;;;;;;15.45;7.43;;;6.40;51.50;;;;;;5050893;28;20086;-84
2022/01/07 08:18:34;;;;;;;10.93;5.18;;;6.50;51.80;;;;;;5050069;28;20490;-83
2022/01/07 08:21:06;;;;;;;11.63;6.03;;;6.50;51.20;;;;;;5050848;28;20017;-90
2022/01/07 08:23:33;;;;;;;9.32;4.93;;;6.20;51.70;;;;;;5057983;28;20082;-83
2022/01/07 08:26:00;;;;;;;10.15;5.43;;;6.60;51.30;;;;;;5052709;28;20047;-81
2022/01/07 08:28:31;;;;;;;23.77;13.63;;;6.50;50.50;;;;;;5052086;28;20371;-81
2022/01/07 08:36:32;;;;;;;9.25;5.38;;;6.50;50.90;;;;;;4988998;28;20076;-81
2022/01/07 08:38:59;;;;;;;10.50;4.80;;;6.40;50.80;;;;;;4972447;28;20070;-83
2022/01/07 08:41:30;;;;;;;10.23;4.57;;;6.80;51.10;;;;;;4988556;28;20564;-81
2022/01/07 08:43:56;;;;;;;23.73;11.05;;;7.20;49.50;;;;;;4971941;28;20096;-82
2022/01/07 08:46:23;;;;;;;20.58;10.32;;;7.20;49.10;;;;;;4972102;28;20363;-81
2022/01/07 08:48:51;;;;;;;14.35;8.85;;;7.30;49.60;;;;;;4972085;28;20499;-81
2022/01/07 08:51:20;;;;;;;9.82;5.65;;;7.60;49.50;;;;;;4971953;28;20027;-80
2022/01/07 08:53:46;;;;;;;8.45;4.30;;;8.60;48.50;;;;;;4988061;28;20037;-80
2022/01/07 08:56:12;;;;;;;11.77;5.32;;;10.70;45.70;;;;;;4972041;28;20022;-83
2022/01/07 08:58:37;;;;;;;8.52;5.13;;;13.10;43.40;;;;;;4987607;28;20552;-82
2022/01/07 09:01:04;;;;;;;9.65;5.22;;;14.10;41.60;;;;;;4971860;28;20088;-81
2022/01/07 09:03:30;;;;;;;9.57;4.68;;;16.00;39.50;;;;;;4987010;28;20121;-78
2022/01/07 09:05:55;;;;;;;9.55;4.88;;;17.60;37.90;;;;;;4976104;28;20018;-84
2022/01/07 09:08:22;;;;;;;11.38;5.50;;;19.10;36.60;;;;;;4974510;28;20453;-80
2022/01/07 09:10:48;;;;;;;13.30;6.25;;;20.80;35.30;;;;;;5025854;28;20115;-88
2022/01/07 09:13:14;;;;;;;10.45;5.43;;;22.00;34.40;;;;;;5072930;28;20024;-80
2022/01/07 09:15:39;;;;;;;14.80;6.70;;;22.90;33.60;;;;;;5071995;28;20056;-87
2022/01/07 09:18:12;;;;;;;16.70;7.50;;;23.30;32.90;;;;;;5073113;28;20490;-80
2022/01/07 09:20:41;;;;;;;21.38;10.38;;;23.80;32.90;;;;;;5072285;28;20028;-88
2022/01/07 09:23:08;;;;;;;23.20;10.93;;;24.20;32.60;;;;;;5055012;28;20040;-80
2022/01/07 09:25:34;;;;;;;22.45;12.15;;;24.70;32.00;;;;;;5054891;28;20078;-84
2022/01/07 09:28:00;;;;;;;24.38;9.48;;;24.80;32.20;;;;;;5055386;28;20376;-83
2022/01/07 09:30:27;;;;;;;13.20;7.43;;;24.90;31.90;;;;;;5072915;28;20077;-88
2022/01/07 09:32:53;;;;;;;10.50;6.03;;;25.20;31.40;;;;;;5055312;28;20105;-87
2022/01/07 09:35:19;;;;;;;11.55;6.07;;;24.70;30.70;;;;;;5071978;28;20024;-86
2022/01/07 09:37:49;;;;;;;9.90;5.15;;;24.40;31.10;;;;;;5073092;28;20032;-85
2022/01/07 09:40:14;;;;;;;13.65;8.23;;;21.70;31.30;;;;;;5058217;28;20028;-83
2022/01/07 09:42:57;;;;;;;10.25;5.88;;;19.90;33.70;;;;;;5076265;28;20036;-84
2022/01/07 09:45:25;;;;;;;14.82;8.45;;;20.00;33.70;;;;;;5059272;28;20013;-86
2022/01/07 09:47:56;;;;;;;135.10;49.00;;;20.90;33.00;;;;;;5077324;28;20030;-82
2022/01/07 09:50:23;;;;;;;61.97;26.75;;;20.90;31.90;;;;;;5059407;28;20024;-85
2022/01/07 09:52:49;;;;;;;53.08;23.95;;;21.50;32.30;;;;;;5076954;28;20039;-87
2022/01/07 09:55:18;;;;;;;11.35;6.07;;;21.70;32.10;;;;;;5059351;28;20024;-86
2022/01/07 09:57:45;;;;;;;12.23;6.68;;;21.10;32.00;;;;;;5059610;28;20052;-86
2022/01/07 10:00:11;;;;;;;9.20;5.18;;;21.00;32.20;;;;;;5058979;28;20060;-86
2022/01/07 10:02:37;;;;;;;9.65;5.00;;;21.20;32.50;;;;;;5059268;28;20097;-82
2022/01/07 10:05:17;;;;;;;9.60;5.15;;;21.40;32.30;;;;;;5075995;28;20079;-85
2022/01/07 10:07:43;;;;;;;8.90;4.47;;;21.30;32.10;;;;;;5076734;28;20028;-84
2022/01/07 10:10:14;;;;;;;8.15;5.00;;;21.30;32.30;;;;;;5076009;28;20020;-85
2022/01/07 10:13:06;;;;;;;9.93;4.63;;;21.30;32.00;;;;;;5076836;28;20017;-85
2022/01/07 10:15:37;;;;;;;9.85;5.75;;;21.40;32.10;;;;;;5059138;28;20023;-84
2022/01/07 10:18:07;;;;;;;12.32;6.07;;;22.00;32.20;;;;;;5076763;28;20016;-86
2022/01/07 10:20:37;;;;;;;11.15;5.57;;;22.10;31.50;;;;;;5059200;28;20022;-87
2022/01/07 10:23:12;;;;;;;10.57;6.07;;;22.30;31.60;;;;;;5058780;28;20043;-86
2022/01/07 10:25:42;;;;;;;9.02;4.78;;;21.20;31.30;;;;;;5058716;28;20024;-87
2022/01/07 10:28:16;;;;;;;6.97;4.10;;;20.60;32.70;;;;;;5076575;28;20017;-87
2022/01/07 10:30:53;;;;;;;27.13;13.02;;;21.10;32.80;;;;;;5076621;28;20031;-88
2022/01/07 10:33:27;;;;;;;17.75;9.88;;;21.60;32.10;;;;;;5058671;28;20032;-87
2022/01/07 10:36:13;;;;;;;19.95;10.27;;;22.60;32.20;;;;;;5058783;28;20028;-87
2022/01/07 10:39:00;;;;;;;17.90;10.73;;;23.20;31.60;;;;;;5058608;28;20028;-89
2022/01/07 10:41:25;;;;;;;14.05;7.90;;;22.20;31.80;;;;;;5058727;28;20017;-87
2022/01/07 10:43:52;;;;;;;13.27;8.32;;;21.80;31.60;;;;;;5058749;28;20031;-87
2022/01/07 10:46:32;;;;;;;11.25;7.03;;;21.80;31.50;;;;;;5058694;28;20481;-88
2022/01/07 10:49:00;;;;;;;8.85;5.55;;;21.70;31.60;;;;;;5058749;28;20016;-88
2022/01/07 10:51:29;;;;;;;12.63;7.25;;;20.30;31.60;;;;;;5057857;28;20059;-91
2022/01/07 10:53:58;;;;;;;11.07;6.13;;;18.30;33.60;;;;;;5058303;28;20070;-89
2022/01/07 10:56:41;;;;;;;10.95;6.57;;;16.40;34.20;;;;;;5058543;28;20582;-85
2022/01/07 10:59:13;;;;;;;14.75;8.43;;;14.80;37.10;;;;;;5058588;28;20031;-90
2022/01/07 11:01:45;;;;;;;14.93;8.25;;;15.30;36.10;;;;;;5058185;28;20024;-87
2022/01/07 11:04:13;;;;;;;11.93;7.18;;;15.90;36.10;;;;;;4364409;28;10000695;-89
2022/01/07 11:06:40;;;;;;;12.65;6.63;;;16.00;35.30;;;;;;5077917;28;20080;-87
2022/01/07 11:09:09;;;;;;;11.68;6.70;;;16.00;35.80;;;;;;5079458;28;20020;-93
2022/01/07 11:11:43;;;;;;;11.73;6.50;;;16.00;35.40;;;;;;5078505;28;20020;-87
2022/01/07 11:14:09;;;;;;;10.57;5.90;;;15.60;36.50;;;;;;5079296;28;20020;-91
2022/01/07 11:16:39;;;;;;;10.63;5.97;;;14.90;36.00;;;;;;5079718;28;20031;-90
2022/01/07 11:19:06;;;;;;;;;;;14.70;36.70;;;;;;5079493;28;20024;-84
2022/01/07 11:21:32;;;;;;;11.68;6.13;;;14.80;35.90;;;;;;5079791;28;19904;-88
2022/01/07 11:23:58;;;;;;;13.70;6.35;;;14.60;36.40;;;;;;5080178;28;20048;-89
2022/01/07 11:26:24;;;;;;;10.27;6.30;;;14.50;36.80;;;;;;5079619;28;20024;-87
2022/01/07 11:29:01;;;;;;;10.63;6.28;;;14.20;37.00;;;;;;5080297;28;20028;-90
2022/01/07 11:31:28;;;;;;;11.60;5.72;;;13.30;36.70;;;;;;5079768;28;20035;-87
2022/01/07 11:34:18;;;;;;;11.75;6.00;;;12.00;37.40;;;;;;5080685;28;20083;-92
2022/01/07 11:36:44;;;;;;;;;;;11.50;39.70;;;;;;5082501;28;20036;-85
2022/01/07 11:39:10;;;;;;;10.15;5.70;;;11.20;40.30;;;;;;5082835;28;20002;-91
2022/01/07 11:41:48;;;;;;;12.20;5.88;;;10.80;40.10;;;;;;5084521;28;20024;-91
2022/01/07 11:44:29;;;;;;;12.88;6.20;;;10.80;40.70;;;;;;5083512;28;20063;-84
2022/01/07 11:47:13;;;;;;;9.93;5.60;;;10.90;40.30;;;;;;5084818;28;20127;-93
2022/01/07 11:49:40;;;;;;;15.82;8.05;;;10.50;40.70;;;;;;5082149;28;20020;-92
2022/01/07 11:52:35;;;;;;;19.33;10.23;;;10.20;40.90;;;;;;5083578;28;20462;-84
2022/01/07 11:55:31;;;;;;;10.48;6.13;;;10.50;40.70;;;;;;5079512;28;20111;-92
2022/01/07 11:58:08;;;;;;;11.95;5.75;;;10.10;40.80;;;;;;4997879;28;20030;-86
2022/01/07 12:01:03;;;;;;;10.70;5.60;;;10.00;41.00;;;;;;4980452;28;20524;-89
2022/01/07 12:03:34;;;;;;;12.38;6.57;;;10.20;40.60;;;;;;4978241;28;20030;-93
2022/01/07 12:06:21;;;;;;;12.40;6.63;;;10.40;41.10;;;;;;4980006;28;20022;-89
2022/01/07 12:08:58;;;;;;;13.00;6.75;;;10.50;41.20;;;;;;4978875;28;20035;-86
2022/01/07 12:11:26;;;;;;;9.93;5.90;;;10.60;40.90;;;;;;4994381;28;20057;-88
2022/01/07 12:13:52;;;;;;;11.93;6.13;;;10.50;40.40;;;;;;4978162;28;20022;-92
2022/01/07 12:16:26;;;;;;;18.92;8.32;;;9.70;40.60;;;;;;4978079;28;20026;-84
2022/01/07 12:18:52;;;;;;;15.35;7.57;;;9.30;40.80;;;;;;4978010;28;20033;-88
2022/01/07 12:21:19;;;;;;;12.02;6.75;;;9.70;41.70;;;;;;4977777;28;20031;-84
2022/01/07 12:23:45;;;;;;;16.23;7.32;;;10.10;41.50;;;;;;4977308;28;20046;-84
2022/01/07 12:26:11;;;;;;;16.98;7.80;;;10.50;41.50;;;;;;4977190;28;20022;-92
2022/01/07 12:28:42;;;;;;;62.15;21.92;;;10.20;40.50;;;;;;4976927;28;20030;-84
2022/01/07 12:31:10;;;;;;;62.38;29.20;;;9.90;40.40;;;;;;4977005;28;20018;-92
2022/01/07 12:33:49;;;;;;;19.38;10.20;;;10.00;40.80;;;;;;4994669;28;20375;-92
2022/01/07 12:36:28;;;;;;;46.88;19.98;;;10.10;40.20;;;;;;5073763;28;20025;-89
2022/01/07 12:39:09;;;;;;;57.10;25.20;;;9.80;40.70;;;;;;5073394;28;20020;-87
2022/01/07 12:41:36;;;;;;;60.47;32.28;;;9.40;41.30;;;;;;5073393;28;20112;-83
2022/01/07 12:44:13;;;;;;;23.10;12.35;;;9.40;41.80;;;;;;5073379;28;20032;-86
2022/01/07 12:46:41;;;;;;;30.67;17.48;;;9.60;40.90;;;;;;5073355;28;20050;-85
2022/01/07 12:49:10;;;;;;;48.15;25.63;;;9.80;40.50;;;;;;5073142;28;20025;-88
2022/01/07 12:51:38;;;;;;;15.20;8.98;;;10.10;40.50;;;;;;5073036;28;20016;-85
2022/01/07 12:54:06;;;;;;;16.88;10.07;;;10.10;39.80;;;;;;5073064;28;20064;-84
2022/01/07 12:56:41;;;;;;;20.95;11.10;;;10.20;39.70;;;;;;5073715;28;20023;-93
2022/01/07 12:59:17;;;;;;;13.43;7.97;;;9.90;39.90;;;;;;5073043;28;20024;-84
2022/01/07 13:01:48;;;;;;;20.70;12.00;;;9.90;39.90;;;;;;5073330;28;20409;-92
2022/01/07 13:04:17;;;;;;;23.20;12.15;;;10.10;39.90;;;;;;5073112;28;20082;-85